createdAt,value
2022-09-17T00:00:55.115Z,86.48
2022-09-17T00:03:30.103Z,86.15
2022-09-17T00:06:08.449Z,86.40
2022-09-17T00:08:40.534Z,87.08
2022-09-17T00:11:15.759Z,86.80
2022-09-17T00:13:44.013Z,85.89
2022-09-17T00:16:16.733Z,85.83
2022-09-17T00:18:51.552Z,86.92
2022-09-17T00:21:27.750Z,86.43
2022-09-17T00:24:02.487Z,86.98
2022-09-17T00:26:38.272Z,87.75
2022-09-17T00:29:10.942Z,87.45
2022-09-17T00:31:40.839Z,87.14
2022-09-17T00:34:13.615Z,86.45
2022-09-17T00:36:45.583Z,86.00
2022-09-17T00:39:16.520Z,86.80
2022-09-17T00:41:50.224Z,85.76
2022-09-17T00:44:51.037Z,85.58
2022-09-17T00:47:53.812Z,86.39
2022-09-17T00:50:38.569Z,86.34
2022-09-17T00:53:13.777Z,87.22
2022-09-17T00:55:55.850Z,86.97
2022-09-17T00:58:30.102Z,86.53
2022-09-17T01:01:04.784Z,86.80
2022-09-17T01:03:34.884Z,87.37
2022-09-17T01:06:33.483Z,87.43
2022-09-17T01:10:14.500Z,87.37
2022-09-17T01:12:47.531Z,86.99
2022-09-17T01:16:05.388Z,87.00
2022-09-17T01:18:58.423Z,86.52
2022-09-17T01:22:28.605Z,87.06
2022-09-17T01:25:31.557Z,86.83
2022-09-17T01:28:33.780Z,87.84
2022-09-17T01:31:29.248Z,88.41
2022-09-17T01:34:43.645Z,87.69
2022-09-17T01:37:48.761Z,86.86
2022-09-17T01:40:56.431Z,86.26
2022-09-17T01:47:18.851Z,86.93
2022-09-17T01:50:09.887Z,87.40
2022-09-17T01:52:44.796Z,87.42
2022-09-17T01:55:24.732Z,87.19
2022-09-17T01:58:04.768Z,86.91
2022-09-17T02:00:43.182Z,86.68
2022-09-17T02:03:43.850Z,86.40
2022-09-17T02:06:21.671Z,86.64
2022-09-17T02:09:25.191Z,86.47
2022-09-17T02:11:59.962Z,86.07
2022-09-17T02:14:40.237Z,85.49
2022-09-17T02:17:15.905Z,85.70
2022-09-17T02:19:55.746Z,86.79
2022-09-17T02:22:40.926Z,86.51
2022-09-17T02:25:37.656Z,86.88
2022-09-17T02:28:10.327Z,86.50
2022-09-17T02:30:46.765Z,85.91
2022-09-17T02:33:21.103Z,86.42
2022-09-17T02:35:51.275Z,86.87
2022-09-17T02:38:26.662Z,86.85
2022-09-17T02:41:13.764Z,86.76
2022-09-17T02:44:01.503Z,86.08
2022-09-17T02:47:18.963Z,86.80
2022-09-17T02:50:18.685Z,87.92
2022-09-17T02:53:16.318Z,88.09
2022-09-17T02:56:28.157Z,88.16
2022-09-17T02:59:04.744Z,87.86
2022-09-17T03:01:59.811Z,88.28
2022-09-17T03:04:32.924Z,88.14
2022-09-17T03:07:06.558Z,88.04
2022-09-17T03:09:43.696Z,87.80
2022-09-17T03:12:16.176Z,88.26
2022-09-17T03:14:47.217Z,88.67
2022-09-17T03:17:18.102Z,88.93
2022-09-17T03:19:48.829Z,88.84
2022-09-17T03:22:21.411Z,88.71
2022-09-17T03:24:57.088Z,87.38
2022-09-17T03:27:59.846Z,86.44
2022-09-17T03:30:34.600Z,86.84
2022-09-17T03:33:07.885Z,87.13
2022-09-17T03:35:45.589Z,85.57
2022-09-17T03:38:22.336Z,85.28
2022-09-17T03:41:24.460Z,84.64
2022-09-17T03:43:58.085Z,85.55
2022-09-17T03:46:34.055Z,86.69
2022-09-17T03:49:13.668Z,87.26
2022-09-17T03:51:58.874Z,86.88
2022-09-17T03:55:08.142Z,85.24
2022-09-17T03:57:39.579Z,84.59
2022-09-17T04:00:31.543Z,83.99
2022-09-17T04:06:43.594Z,84.29
2022-09-17T04:09:45.773Z,85.27
2022-09-17T04:12:21.027Z,85.08
2022-09-17T04:15:24.286Z,85.43
2022-09-17T04:18:03.269Z,85.87
2022-09-17T04:20:46.550Z,85.82
2022-09-17T04:24:03.590Z,85.35
2022-09-17T04:26:35.509Z,85.20
2022-09-17T04:29:15.966Z,84.57
2022-09-17T04:31:48.327Z,84.20
2022-09-17T04:34:21.064Z,84.05
2022-09-17T04:37:09.929Z,83.83
2022-09-17T04:39:42.015Z,83.50
2022-09-17T04:42:30.355Z,83.16
2022-09-17T04:45:18.884Z,82.20
2022-09-17T04:52:03.558Z,81.82
2022-09-17T04:54:33.669Z,81.11
2022-09-17T04:57:09.583Z,80.50
2022-09-17T04:59:52.963Z,80.74
2022-09-17T05:02:59.129Z,80.15
2022-09-17T05:05:34.011Z,80.99
2022-09-17T05:08:17.504Z,81.85
2022-09-17T05:11:00.741Z,81.95
2022-09-17T05:13:34.205Z,80.87
2022-09-17T05:16:14.450Z,80.90
2022-09-17T05:18:54.670Z,80.85
2022-09-17T05:21:42.407Z,82.38
2022-09-17T05:24:24.400Z,82.82
2022-09-17T05:27:01.783Z,82.85
2022-09-17T05:29:46.172Z,79.21
2022-09-17T05:32:19.784Z,80.40
2022-09-17T05:34:56.781Z,80.36
2022-09-17T05:37:45.727Z,82.35
2022-09-17T05:40:20.827Z,83.51
2022-09-17T05:43:17.325Z,82.38
2022-09-17T05:45:53.178Z,82.89
2022-09-17T05:48:34.333Z,83.79
2022-09-17T05:51:08.792Z,85.30
2022-09-17T05:53:46.372Z,85.47
2022-09-17T05:56:49.812Z,85.37
2022-09-17T05:59:28.325Z,85.68
2022-09-17T06:02:18.275Z,85.46
2022-09-17T06:04:52.125Z,85.40
2022-09-17T06:07:40.776Z,85.57
2022-09-17T06:10:32.567Z,85.51
2022-09-17T06:13:06.505Z,85.83
2022-09-17T06:15:42.951Z,86.47
2022-09-17T06:18:14.630Z,87.30
2022-09-17T06:21:05.901Z,86.60
2022-09-17T06:23:36.577Z,87.02
2022-09-17T06:26:13.460Z,86.09
2022-09-17T06:28:49.695Z,85.82
2022-09-17T06:31:22.293Z,85.38
2022-09-17T06:33:51.421Z,85.66
2022-09-17T06:36:29.979Z,86.05
2022-09-17T06:39:08.504Z,86.51
2022-09-17T06:42:00.455Z,87.17
2022-09-17T06:45:31.735Z,86.82
2022-09-17T06:48:04.543Z,86.87
2022-09-17T06:50:48.854Z,86.63
2022-09-17T06:53:22.118Z,86.42
2022-09-17T06:55:57.129Z,86.98
2022-09-17T06:58:29.472Z,87.11
2022-09-17T07:01:45.448Z,87.63
2022-09-17T07:04:25.884Z,88.16
2022-09-17T07:07:16.587Z,87.64
2022-09-17T07:09:53.953Z,87.46
2022-09-17T07:12:45.457Z,87.44
2022-09-17T07:15:59.595Z,87.57
2022-09-17T07:18:26.912Z,87.83
2022-09-17T07:21:00.976Z,87.75
2022-09-17T07:23:29.741Z,88.20
2022-09-17T07:26:01.991Z,88.09
2022-09-17T07:28:29.284Z,87.98
2022-09-17T07:30:56.634Z,87.89
2022-09-17T07:33:26.895Z,87.54
2022-09-17T07:35:58.687Z,87.80
2022-09-17T07:38:27.705Z,88.08
2022-09-17T07:41:05.110Z,87.53
2022-09-17T07:43:33.797Z,87.59
2022-09-17T07:46:02.005Z,88.25
2022-09-17T07:48:29.689Z,87.88
2022-09-17T07:50:56.883Z,88.13
2022-09-17T07:53:24.163Z,88.11
2022-09-17T07:55:55.420Z,88.07
2022-09-17T07:58:34.153Z,88.00
2022-09-17T08:01:09.281Z,88.31
2022-09-17T08:03:37.254Z,88.22
2022-09-17T08:06:11.438Z,88.12
2022-09-17T08:08:39.496Z,87.54
2022-09-17T08:11:08.217Z,87.35
2022-09-17T08:13:35.514Z,87.62
2022-09-17T08:16:06.954Z,87.70
2022-09-17T08:18:34.406Z,87.60
2022-09-17T08:21:05.745Z,87.11
2022-09-17T08:23:34.938Z,87.38
2022-09-17T08:26:02.261Z,86.85
2022-09-17T08:28:30.211Z,86.96
2022-09-17T08:31:16.918Z,87.07
2022-09-17T08:33:44.366Z,87.46
2022-09-17T08:36:13.021Z,87.50
2022-09-17T08:38:40.717Z,87.56
2022-09-17T08:41:10.503Z,87.79
2022-09-17T08:43:42.456Z,87.49
2022-09-17T08:46:10.528Z,86.72
2022-09-17T08:48:42.672Z,85.98
2022-09-17T08:51:29.622Z,85.26
2022-09-17T08:54:29.106Z,85.42
2022-09-17T08:57:33.952Z,85.92
2022-09-17T09:00:10.667Z,86.11
2022-09-17T09:02:56.747Z,85.83
2022-09-17T09:05:33.310Z,85.82
2022-09-17T09:08:06.370Z,85.66
2022-09-17T09:10:45.086Z,84.60
2022-09-17T09:13:13.510Z,84.27
2022-09-17T09:15:43.677Z,84.54
2022-09-17T09:18:21.041Z,84.15
2022-09-17T09:20:55.753Z,83.50
2022-09-17T09:23:41.517Z,83.85
2022-09-17T09:26:18.682Z,83.34
2022-09-17T09:28:48.898Z,82.75
2022-09-17T09:31:16.140Z,82.12
2022-09-17T09:33:47.599Z,81.01
2022-09-17T09:36:15.995Z,81.30
2022-09-17T09:38:46.525Z,81.24
2022-09-17T09:41:17.245Z,81.21
2022-09-17T09:44:05.791Z,81.60
2022-09-17T09:47:03.556Z,81.77
2022-09-17T09:49:53.607Z,81.73
2022-09-17T09:52:35.994Z,80.40
2022-09-17T09:55:11.966Z,81.40
2022-09-17T09:57:49.761Z,80.43
2022-09-17T10:00:36.606Z,79.07
2022-09-17T10:03:13.209Z,79.70
2022-09-17T10:05:40.934Z,79.96
2022-09-17T10:08:14.813Z,79.95
2022-09-17T10:11:01.176Z,78.45
2022-09-17T10:13:38.175Z,79.20
2022-09-17T10:16:27.707Z,77.31
2022-09-17T10:19:03.838Z,77.71
2022-09-17T10:21:31.989Z,76.28
2022-09-17T10:23:59.679Z,77.31
2022-09-17T10:26:30.969Z,76.30
2022-09-17T10:29:12.870Z,76.33
2022-09-17T10:32:07.139Z,72.87
2022-09-17T10:34:34.398Z,69.75
2022-09-17T10:37:01.793Z,68.87
2022-09-17T10:39:44.460Z,67.10
2022-09-17T10:42:11.656Z,66.80
2022-09-17T10:44:38.957Z,68.45
2022-09-17T10:47:22.264Z,66.33
2022-09-17T10:50:26.475Z,67.32
2022-09-17T10:52:55.839Z,66.52
2022-09-17T10:55:33.584Z,67.74
2022-09-17T10:58:09.892Z,64.46
2022-09-17T11:01:11.168Z,65.39
2022-09-17T11:03:57.009Z,65.95
2022-09-17T11:06:36.068Z,65.90
2022-09-17T11:09:28.450Z,65.67
2022-09-17T11:12:08.732Z,64.91
2022-09-17T11:14:50.062Z,62.67
2022-09-17T11:17:38.506Z,59.61
2022-09-17T11:20:11.502Z,60.95
2022-09-17T11:22:38.653Z,58.78
2022-09-17T11:25:44.465Z,61.28
2022-09-17T11:28:17.912Z,58.65
2022-09-17T11:30:51.255Z,57.15
2022-09-17T11:33:39.805Z,56.37
2022-09-17T11:36:13.139Z,56.82
2022-09-17T11:38:43.265Z,56.31
2022-09-17T11:41:13.487Z,56.10
2022-09-17T11:43:45.031Z,54.94
2022-09-17T11:46:20.106Z,56.01
2022-09-17T11:49:06.112Z,53.16
2022-09-17T11:51:36.325Z,55.04
2022-09-17T11:54:07.672Z,55.16
2022-09-17T11:57:11.040Z,53.45
2022-09-17T11:59:45.138Z,54.83
2022-09-17T12:02:38.572Z,54.86
2022-09-17T12:05:08.716Z,54.65
2022-09-17T12:07:57.838Z,54.20
2022-09-17T12:10:39.442Z,53.27
2022-09-17T12:13:09.667Z,53.38
2022-09-17T12:15:39.350Z,53.07
2022-09-17T12:18:40.687Z,52.95
2022-09-17T12:21:08.833Z,53.23
2022-09-17T12:23:57.914Z,53.54
2022-09-17T12:26:32.232Z,53.30
2022-09-17T12:29:37.130Z,53.70
2022-09-17T12:32:19.516Z,53.34
2022-09-17T12:35:04.813Z,52.79
2022-09-17T12:37:47.461Z,52.38
2022-09-17T12:40:43.753Z,50.36
2022-09-17T12:43:43.332Z,51.35
2022-09-17T12:46:38.254Z,52.16
2022-09-17T12:49:19.202Z,50.39
2022-09-17T12:52:07.333Z,51.51
2022-09-17T12:55:05.263Z,51.86
2022-09-17T12:57:50.877Z,52.07
2022-09-17T13:00:18.232Z,51.36
2022-09-17T13:02:51.643Z,52.25
2022-09-17T13:05:51.725Z,52.77
2022-09-17T13:08:30.877Z,51.58
2022-09-17T13:11:01.218Z,50.99
2022-09-17T13:13:48.075Z,53.23
2022-09-17T13:16:22.025Z,51.21
2022-09-17T13:19:18.928Z,51.85
2022-09-17T13:21:51.880Z,51.88
2022-09-17T13:24:21.684Z,52.33
2022-09-17T13:26:48.856Z,52.10
2022-09-17T13:29:44.965Z,51.48
2022-09-17T13:32:32.453Z,53.93
2022-09-17T13:35:11.408Z,51.93
2022-09-17T13:37:56.925Z,53.05
2022-09-17T13:40:36.746Z,54.45
2022-09-17T13:43:03.916Z,54.02
2022-09-17T13:45:32.109Z,54.69
2022-09-17T13:47:59.982Z,54.18
2022-09-17T13:50:27.055Z,54.36
2022-09-17T13:52:55.177Z,53.64
2022-09-17T13:55:38.082Z,53.46
2022-09-17T13:58:26.551Z,55.90
2022-09-17T14:01:07.903Z,53.60
2022-09-17T14:03:41.897Z,54.09
2022-09-17T14:06:34.866Z,54.87
2022-09-17T14:09:02.807Z,54.60
2022-09-17T14:11:29.899Z,53.27
2022-09-17T14:14:03.307Z,54.15
2022-09-17T14:16:40.729Z,53.82
2022-09-17T14:19:22.493Z,54.20
2022-09-17T14:21:57.595Z,55.74
2022-09-17T14:24:26.061Z,55.68
2022-09-17T14:27:30.718Z,55.24
2022-09-17T14:30:15.655Z,53.91
2022-09-17T14:32:44.993Z,54.68
2022-09-17T14:35:20.124Z,54.93
2022-09-17T14:38:00.136Z,54.40
2022-09-17T14:40:28.354Z,54.79
2022-09-17T14:42:56.922Z,55.60
2022-09-17T14:45:25.351Z,55.39
2022-09-17T14:48:20.149Z,55.11
2022-09-17T14:50:47.532Z,55.82
2022-09-17T14:53:16.151Z,55.58
2022-09-17T14:55:43.440Z,57.04
2022-09-17T14:58:26.132Z,56.66
2022-09-17T15:00:53.447Z,56.86
2022-09-17T15:03:23.778Z,56.04
2022-09-17T15:05:51.404Z,55.77
2022-09-17T15:08:25.246Z,56.34
2022-09-17T15:10:57.360Z,56.44
2022-09-17T15:13:28.406Z,57.89
2022-09-17T15:16:07.658Z,55.44
2022-09-17T15:19:01.012Z,56.39
2022-09-17T15:21:36.464Z,55.65
2022-09-17T15:24:08.145Z,56.95
2022-09-17T15:26:36.557Z,57.46
2022-09-17T15:29:03.779Z,56.84
2022-09-17T15:31:31.346Z,57.39
2022-09-17T15:34:01.862Z,56.69
2022-09-17T15:36:30.255Z,57.21
2022-09-17T15:38:57.616Z,57.37
2022-09-17T15:41:30.449Z,57.22
2022-09-17T15:44:31.089Z,58.18
2022-09-17T15:47:37.544Z,57.34
2022-09-17T15:50:12.112Z,57.96
2022-09-17T15:52:39.448Z,57.94
2022-09-17T15:55:06.975Z,57.93
2022-09-17T15:57:34.282Z,56.95
2022-09-17T16:00:14.590Z,58.82
2022-09-17T16:02:41.905Z,58.94
2022-09-17T16:05:18.552Z,59.41
2022-09-17T16:07:45.933Z,59.65
2022-09-17T16:10:14.087Z,58.01
2022-09-17T16:12:41.314Z,58.81
2022-09-17T16:15:08.890Z,60.10
2022-09-17T16:17:43.282Z,59.46
2022-09-17T16:20:24.201Z,57.51
2022-09-17T16:22:52.393Z,57.61
2022-09-17T16:25:28.985Z,58.94
2022-09-17T16:28:17.218Z,58.38
2022-09-17T16:30:45.859Z,57.23
2022-09-17T16:33:13.648Z,57.74
2022-09-17T16:35:41.043Z,56.46
2022-09-17T16:38:08.282Z,56.79
2022-09-17T16:40:35.595Z,57.86
2022-09-17T16:43:03.015Z,57.85
2022-09-17T16:45:30.842Z,57.29
2022-09-17T16:47:58.117Z,58.19
2022-09-17T16:50:25.427Z,58.63
2022-09-17T16:52:53.501Z,57.58
2022-09-17T16:55:20.741Z,58.30
2022-09-17T16:57:48.038Z,57.09
2022-09-17T17:00:20.040Z,59.08
2022-09-17T17:02:55.146Z,57.12
2022-09-17T17:05:23.327Z,57.56
2022-09-17T17:07:50.669Z,58.85
2022-09-17T17:10:18.142Z,57.02
2022-09-17T17:12:45.273Z,57.39
2022-09-17T17:15:12.563Z,57.60
2022-09-17T17:17:39.767Z,57.69
2022-09-17T17:20:12.649Z,57.59
2022-09-17T17:22:40.834Z,57.99
2022-09-17T17:25:08.345Z,58.37
2022-09-17T17:27:35.735Z,57.68
2022-09-17T17:30:06.720Z,57.71
2022-09-17T17:32:34.710Z,58.78
2022-09-17T17:35:02.190Z,57.79
2022-09-17T17:37:29.443Z,59.30
2022-09-17T17:39:57.897Z,57.64
2022-09-17T17:42:25.159Z,58.44
2022-09-17T17:44:52.366Z,57.80
2022-09-17T17:47:19.537Z,57.91
2022-09-17T17:49:48.633Z,57.74
2022-09-17T17:52:15.884Z,57.49
2022-09-17T17:54:43.039Z,57.74
2022-09-17T17:57:11.428Z,58.11
2022-09-17T17:59:38.562Z,58.43
2022-09-17T18:02:05.973Z,58.35
2022-09-17T18:04:33.343Z,59.37
2022-09-17T18:07:00.527Z,58.33
2022-09-17T18:09:27.621Z,58.26
2022-09-17T18:11:55.157Z,58.35
2022-09-17T18:14:22.287Z,58.44
2022-09-17T18:16:49.614Z,58.50
2022-09-17T18:19:16.803Z,58.70
2022-09-17T18:21:44.002Z,58.34
2022-09-17T18:24:11.336Z,60.05
2022-09-17T18:26:38.566Z,58.27
2022-09-17T18:29:08.145Z,58.65
2022-09-17T18:31:36.007Z,58.18
2022-09-17T18:34:07.953Z,58.19
2022-09-17T18:36:35.692Z,58.30
2022-09-17T18:41:52.826Z,60.16
2022-09-17T18:44:21.970Z,60.34
2022-09-17T18:46:51.227Z,62.06
2022-09-17T18:49:18.588Z,61.43
2022-09-17T18:51:45.928Z,60.59
2022-09-17T18:54:13.177Z,60.98
2022-09-17T18:56:41.781Z,61.57
2022-09-17T18:59:09.486Z,62.01
2022-09-17T19:01:36.814Z,62.03
2022-09-17T19:04:04.293Z,61.28
2022-09-17T19:06:32.289Z,61.27
2022-09-17T19:09:00.283Z,60.89
2022-09-17T19:11:27.924Z,62.20
2022-09-17T19:13:55.185Z,60.52
2022-09-17T19:16:22.568Z,59.25
2022-09-17T19:18:49.954Z,59.28
2022-09-17T19:21:19.042Z,59.26
2022-09-17T19:23:47.359Z,58.79
2022-09-17T19:26:24.998Z,59.97
2022-09-17T19:28:53.285Z,60.94
2022-09-17T19:31:20.767Z,60.38
2022-09-17T19:33:48.044Z,57.92
2022-09-17T19:36:16.376Z,57.53
2022-09-17T19:38:43.766Z,57.91
2022-09-17T19:41:12.544Z,57.79
2022-09-17T19:43:39.781Z,57.53
2022-09-17T19:46:08.496Z,57.43
2022-09-17T19:48:36.335Z,57.27
2022-09-17T19:51:04.449Z,58.89
2022-09-17T19:53:32.346Z,56.36
2022-09-17T19:55:59.492Z,55.97
2022-09-17T19:58:26.737Z,55.92
2022-09-17T20:00:57.409Z,55.60
2022-09-17T20:03:25.013Z,55.58
2022-09-17T20:06:01.916Z,55.92
2022-09-17T20:08:29.264Z,55.71
2022-09-17T20:10:56.571Z,55.85
2022-09-17T20:13:25.407Z,55.85
2022-09-17T20:15:52.606Z,55.48
2022-09-17T20:18:23.349Z,54.88
2022-09-17T20:20:50.968Z,55.36
2022-09-17T20:23:18.097Z,54.41
2022-09-17T20:25:52.111Z,54.72
2022-09-17T20:28:19.586Z,54.75
2022-09-17T20:30:46.813Z,54.62
2022-09-17T20:33:14.151Z,54.55
2022-09-17T20:35:41.322Z,54.89
2022-09-17T20:38:59.952Z,54.30
2022-09-17T20:41:05.886Z,53.46
2022-09-17T20:43:34.356Z,53.55
2022-09-17T20:46:02.141Z,53.23
2022-09-17T20:48:32.703Z,53.21
2022-09-17T20:51:01.766Z,53.14
2022-09-17T20:53:29.248Z,53.35
2022-09-17T20:55:57.799Z,52.99
2022-09-17T20:58:26.464Z,52.74
2022-09-17T21:00:54.675Z,53.38
2022-09-17T21:03:23.102Z,53.25
2022-09-17T21:05:50.402Z,54.09
2022-09-17T21:08:17.643Z,54.11
2022-09-17T21:10:44.844Z,54.28
2022-09-17T21:13:12.088Z,54.38
2022-09-17T21:15:39.431Z,55.94
2022-09-17T21:18:06.721Z,55.43
2022-09-17T21:20:37.122Z,56.21
2022-09-17T21:23:04.602Z,56.95
2022-09-17T21:25:31.752Z,60.64
2022-09-17T21:27:59.033Z,62.22
2022-09-17T21:30:26.177Z,63.57
2022-09-17T21:32:53.783Z,63.24
2022-09-17T21:35:21.479Z,60.78
2022-09-17T21:37:48.708Z,61.03
2022-09-17T21:40:15.909Z,59.75
2022-09-17T21:42:43.255Z,59.36
2022-09-17T21:45:10.438Z,58.29
2022-09-17T21:47:37.697Z,56.31
2022-09-17T21:50:05.147Z,59.13
2022-09-17T21:52:34.519Z,56.10
2022-09-17T21:55:01.688Z,56.44
2022-09-17T21:57:29.290Z,57.14
2022-09-17T21:59:56.446Z,55.87
2022-09-17T22:02:23.735Z,54.69
2022-09-17T22:04:50.917Z,55.45
2022-09-17T22:07:18.257Z,55.85
2022-09-17T22:09:45.423Z,58.37
2022-09-17T22:12:12.733Z,58.56
2022-09-17T22:14:39.970Z,59.10
2022-09-17T22:17:07.228Z,59.16
2022-09-17T22:19:34.901Z,60.87
2022-09-17T22:22:02.224Z,59.40
2022-09-17T22:24:29.502Z,59.80
2022-09-17T22:26:58.072Z,60.26
2022-09-17T22:29:26.217Z,61.55
2022-09-17T22:31:53.747Z,62.93
2022-09-17T22:34:21.887Z,63.90
2022-09-17T22:36:49.411Z,64.30
2022-09-17T22:39:19.144Z,65.19
2022-09-17T22:41:46.996Z,65.96
2022-09-17T22:44:16.673Z,66.96
2022-09-17T22:46:45.250Z,66.00
2022-09-17T22:49:12.584Z,63.85
2022-09-17T22:51:40.029Z,59.47
2022-09-17T22:54:12.213Z,58.81
2022-09-17T22:56:39.449Z,59.26
2022-09-17T22:59:06.670Z,56.32
2022-09-17T23:01:36.283Z,55.69
2022-09-17T23:04:04.251Z,55.88
2022-09-17T23:06:33.121Z,58.42
2022-09-17T23:09:00.404Z,54.78
2022-09-17T23:11:32.548Z,54.85
2022-09-17T23:14:04.023Z,55.20
2022-09-17T23:16:42.469Z,56.02
2022-09-17T23:19:09.888Z,56.75
2022-09-17T23:21:37.471Z,57.15
2022-09-17T23:24:04.771Z,57.29
2022-09-17T23:26:31.971Z,57.87
2022-09-17T23:29:04.635Z,58.07
2022-09-17T23:31:34.869Z,58.91
2022-09-17T23:34:02.424Z,58.69
2022-09-17T23:36:30.937Z,59.93
2022-09-17T23:38:58.420Z,59.30
2022-09-17T23:41:30.058Z,59.47
2022-09-17T23:43:58.918Z,59.13
2022-09-17T23:46:26.862Z,59.62
2022-09-17T23:48:54.214Z,59.56
2022-09-17T23:51:22.123Z,60.22
2022-09-17T23:53:49.405Z,60.44
2022-09-17T23:56:18.870Z,60.28
2022-09-17T23:58:46.313Z,60.25
